Portada
METAR-TAF:

METAR-TAF

Aeroports :

Pyongyang, Corea del Nord

latitud: 39-02N, longitud: 125-47E, altitud: 36 m

METAR: manca

Hora: 20:54 (11:54 UTC)

Pronòstic

L'informe es va fer fa 7 hores i 4 minuts, a les 04:50 UTC
Pronòstic vàlid del 27 a les 06 UTC al 28 a les 06 UTC
Vent 8 kt del Nord-Est
Visibilitat 10 km o més
Cel cobert a una alçada de 3000 ft
Temporalment
l' 27 a les 18 UTC al 27 a les 24 UTC
Vent 4 kt amb direcció variable
Visibilitat: 6000 m

TAF: ZKPY 270450Z 2706/2806 04004MPS 9999 OVC030 TX08/2706Z TN02/2722Z TEMPO 2718/2724 VRB02MPS 6000

Observacions i pronòstics meteorològics de més de 4000 aeroports (METAR i TAF).

Les estacions disponibles són els punts grocs i vermells al mapa.

Posi el ratolí al punt desitjat per veure el nom de l'estació.

Feu clic per veure les observacions i els pronòstics meteorològics.

Per canviar el mapa: feu clic els botons verds amb una creu de color negre per apropar; al botó verd amb un guió per allunyar la imatge; o en les fletxes verdes per a mapes adjacents.


METAR-TAF: